sensor_id;sensor_type;location;lat;lon;timestamp;pressure;altitude;pressure_sealevel;temperature;humidity
71392;BME280;59205;50.610;12.638;2022-10-28T00:02:10;96494.81;;;15.17;74.91
71392;BME280;59205;50.610;12.638;2022-10-28T00:04:35;96485.22;;;14.98;75.81
71392;BME280;59205;50.610;12.638;2022-10-28T00:07:01;96492.66;;;14.97;75.99
71392;BME280;59205;50.610;12.638;2022-10-28T00:09:27;96493.78;;;14.91;76.84
71392;BME280;59205;50.610;12.638;2022-10-28T00:11:52;96486.16;;;14.95;76.66
71392;BME280;59205;50.610;12.638;2022-10-28T00:14:17;96485.03;;;15.25;75.57
71392;BME280;59205;50.610;12.638;2022-10-28T00:16:43;96485.00;;;15.10;76.03
71392;BME280;59205;50.610;12.638;2022-10-28T00:19:10;96469.13;;;15.00;76.70
71392;BME280;59205;50.610;12.638;2022-10-28T00:21:37;96469.38;;;15.11;75.74
71392;BME280;59205;50.610;12.638;2022-10-28T00:24:04;96465.22;;;15.15;75.22
71392;BME280;59205;50.610;12.638;2022-10-28T00:26:31;96464.56;;;15.20;74.70
71392;BME280;59205;50.610;12.638;2022-10-28T00:28:59;96462.22;;;15.13;74.72
71392;BME280;59205;50.610;12.638;2022-10-28T00:31:27;96461.31;;;15.31;73.12
71392;BME280;59205;50.610;12.638;2022-10-28T00:33:53;96465.09;;;15.33;72.53
71392;BME280;59205;50.610;12.638;2022-10-28T00:36:21;96472.47;;;15.42;71.72
71392;BME280;59205;50.610;12.638;2022-10-28T00:38:49;96468.13;;;15.35;71.87
71392;BME280;59205;50.610;12.638;2022-10-28T00:41:24;96472.59;;;15.24;72.52
71392;BME280;59205;50.610;12.638;2022-10-28T00:43:52;96460.69;;;15.12;73.40
71392;BME280;59205;50.610;12.638;2022-10-28T00:46:34;96460.44;;;15.48;70.96
71392;BME280;59205;50.610;12.638;2022-10-28T00:49:23;96456.47;;;15.35;71.61
71392;BME280;59205;50.610;12.638;2022-10-28T00:51:54;96460.34;;;15.57;69.97
71392;BME280;59205;50.610;12.638;2022-10-28T00:54:22;96449.69;;;15.44;70.68
71392;BME280;59205;50.610;12.638;2022-10-28T00:56:52;96445.91;;;15.42;70.71
71392;BME280;59205;50.610;12.638;2022-10-28T00:59:25;96451.47;;;15.62;69.52
71392;BME280;59205;50.610;12.638;2022-10-28T01:01:51;96447.16;;;15.55;69.67
71392;BME280;59205;50.610;12.638;2022-10-28T01:04:17;96447.63;;;15.68;68.43
71392;BME280;59205;50.610;12.638;2022-10-28T01:06:43;96450.06;;;15.95;67.33
71392;BME280;59205;50.610;12.638;2022-10-28T01:09:10;96451.66;;;15.87;67.42
71392;BME280;59205;50.610;12.638;2022-10-28T01:17:07;96446.84;;;15.97;67.73
71392;BME280;59205;50.610;12.638;2022-10-28T01:22:23;96448.91;;;16.02;67.82
71392;BME280;59205;50.610;12.638;2022-10-28T01:33:32;96437.56;;;16.23;68.27
71392;BME280;59205;50.610;12.638;2022-10-28T01:36:13;96437.34;;;16.07;69.31
71392;BME280;59205;50.610;12.638;2022-10-28T01:38:54;96440.09;;;16.27;68.61
71392;BME280;59205;50.610;12.638;2022-10-28T01:44:36;96434.47;;;16.16;69.42
71392;BME280;59205;50.610;12.638;2022-10-28T01:47:09;96440.41;;;16.14;69.42
71392;BME280;59205;50.610;12.638;2022-10-28T01:49:45;96428.59;;;16.23;69.12
71392;BME280;59205;50.610;12.638;2022-10-28T01:52:13;96420.94;;;16.27;68.86
71392;BME280;59205;50.610;12.638;2022-10-28T01:54:43;96419.47;;;16.11;69.69
71392;BME280;59205;50.610;12.638;2022-10-28T01:57:11;96421.91;;;16.24;68.76
71392;BME280;59205;50.610;12.638;2022-10-28T01:59:38;96423.84;;;16.03;69.61
71392;BME280;59205;50.610;12.638;2022-10-28T02:02:05;96424.81;;;15.86;70.98
71392;BME280;59205;50.610;12.638;2022-10-28T02:04:30;96424.25;;;15.96;70.44
71392;BME280;59205;50.610;12.638;2022-10-28T02:06:58;96426.75;;;16.00;70.06
71392;BME280;59205;50.610;12.638;2022-10-28T02:09:50;96425.50;;;16.15;69.66
71392;BME280;59205;50.610;12.638;2022-10-28T02:12:21;96422.31;;;16.17;69.83
71392;BME280;59205;50.610;12.638;2022-10-28T02:21:03;96409.22;;;16.06;71.05
71392;BME280;59205;50.610;12.638;2022-10-28T02:23:51;96407.19;;;15.87;71.44
71392;BME280;59205;50.610;12.638;2022-10-28T02:26:24;96412.28;;;15.79;71.67
71392;BME280;59205;50.610;12.638;2022-10-28T02:29:05;96407.38;;;15.83;71.60
71392;BME280;59205;50.610;12.638;2022-10-28T02:31:35;96402.38;;;15.82;71.39
71392;BME280;59205;50.610;12.638;2022-10-28T02:34:06;96397.25;;;16.04;70.60
71392;BME280;59205;50.610;12.638;2022-10-28T02:36:36;96407.28;;;15.78;71.99
71392;BME280;59205;50.610;12.638;2022-10-28T02:39:04;96401.44;;;15.85;71.98
71392;BME280;59205;50.610;12.638;2022-10-28T02:41:43;96399.53;;;15.91;71.82
71392;BME280;59205;50.610;12.638;2022-10-28T02:44:12;96394.63;;;15.95;72.02
71392;BME280;59205;50.610;12.638;2022-10-28T02:46:41;96398.28;;;16.06;71.57
71392;BME280;59205;50.610;12.638;2022-10-28T02:49:10;96397.19;;;15.98;71.76
71392;BME280;59205;50.610;12.638;2022-10-28T02:51:40;96399.91;;;15.98;72.03
71392;BME280;59205;50.610;12.638;2022-10-28T02:54:10;96397.47;;;15.71;73.14
71392;BME280;59205;50.610;12.638;2022-10-28T02:56:42;96402.75;;;15.75;73.08
71392;BME280;59205;50.610;12.638;2022-10-28T02:59:11;96394.28;;;15.73;73.52
71392;BME280;59205;50.610;12.638;2022-10-28T03:01:37;96402.28;;;15.62;74.18
71392;BME280;59205;50.610;12.638;2022-10-28T03:04:03;96400.47;;;15.73;73.82
71392;BME280;59205;50.610;12.638;2022-10-28T03:06:29;96404.09;;;15.79;73.67
71392;BME280;59205;50.610;12.638;2022-10-28T03:08:55;96395.03;;;15.59;74.52
71392;BME280;59205;50.610;12.638;2022-10-28T03:11:20;96401.63;;;15.81;73.89
71392;BME280;59205;50.610;12.638;2022-10-28T03:13:48;96390.13;;;15.63;74.69
71392;BME280;59205;50.610;12.638;2022-10-28T03:16:14;96395.00;;;15.73;74.24
71392;BME280;59205;50.610;12.638;2022-10-28T03:18:39;96392.50;;;15.70;74.44
71392;BME280;59205;50.610;12.638;2022-10-28T03:21:05;96393.88;;;15.80;74.25
71392;BME280;59205;50.610;12.638;2022-10-28T03:23:30;96390.13;;;15.63;74.88
71392;BME280;59205;50.610;12.638;2022-10-28T03:25:56;96387.69;;;15.65;74.84
71392;BME280;59205;50.610;12.638;2022-10-28T03:28:21;96392.03;;;15.57;75.19
71392;BME280;59205;50.610;12.638;2022-10-28T03:30:46;96389.56;;;15.59;75.38
71392;BME280;59205;50.610;12.638;2022-10-28T03:33:12;96383.16;;;15.62;75.56
71392;BME280;59205;50.610;12.638;2022-10-28T03:35:37;96384.50;;;15.52;75.80
71392;BME280;59205;50.610;12.638;2022-10-28T03:38:03;96381.47;;;15.50;76.03
71392;BME280;59205;50.610;12.638;2022-10-28T03:40:28;96382.78;;;15.40;76.39
71392;BME280;59205;50.610;12.638;2022-10-28T03:42:53;96382.88;;;15.45;76.15
71392;BME280;59205;50.610;12.638;2022-10-28T03:45:19;96376.69;;;15.45;76.33
71392;BME280;59205;50.610;12.638;2022-10-28T03:47:44;96383.00;;;15.51;76.26
71392;BME280;59205;50.610;12.638;2022-10-28T03:50:10;96375.63;;;15.57;75.93
71392;BME280;59205;50.610;12.638;2022-10-28T03:52:35;96369.16;;;15.54;76.06
71392;BME280;59205;50.610;12.638;2022-10-28T03:55:01;96368.47;;;15.59;75.74
71392;BME280;59205;50.610;12.638;2022-10-28T03:57:30;96367.34;;;15.66;75.67
71392;BME280;59205;50.610;12.638;2022-10-28T03:59:56;96372.22;;;15.76;74.99
71392;BME280;59205;50.610;12.638;2022-10-28T04:02:21;96362.81;;;15.77;74.66
71392;BME280;59205;50.610;12.638;2022-10-28T04:04:47;96362.59;;;15.81;74.43
71392;BME280;59205;50.610;12.638;2022-10-28T04:07:12;96364.81;;;15.97;73.67
71392;BME280;59205;50.610;12.638;2022-10-28T04:09:37;96365.69;;;15.88;74.12
71392;BME280;59205;50.610;12.638;2022-10-28T04:12:04;96373.25;;;15.79;74.75
71392;BME280;59205;50.610;12.638;2022-10-28T04:14:30;96365.72;;;15.74;75.03
71392;BME280;59205;50.610;12.638;2022-10-28T04:16:55;96371.09;;;15.54;75.76
71392;BME280;59205;50.610;12.638;2022-10-28T04:19:21;96363.38;;;15.67;75.18
71392;BME280;59205;50.610;12.638;2022-10-28T04:21:46;96367.34;;;15.66;75.15
71392;BME280;59205;50.610;12.638;2022-10-28T04:24:12;96380.50;;;15.82;74.18
71392;BME280;59205;50.610;12.638;2022-10-28T04:26:37;96379.94;;;15.78;74.26
71392;BME280;59205;50.610;12.638;2022-10-28T04:29:02;96377.31;;;15.69;74.53
71392;BME280;59205;50.610;12.638;2022-10-28T04:31:28;96375.13;;;15.87;73.65
71392;BME280;59205;50.610;12.638;2022-10-28T04:33:53;96369.78;;;15.78;73.80
71392;BME280;59205;50.610;12.638;2022-10-28T04:36:19;96374.69;;;15.60;74.67
71392;BME280;59205;50.610;12.638;2022-10-28T04:38:44;96371.50;;;15.47;75.70
71392;BME280;59205;50.610;12.638;2022-10-28T04:41:13;96370.56;;;15.50;75.44
71392;BME280;59205;50.610;12.638;2022-10-28T04:43:39;96371.09;;;15.54;75.41
71392;BME280;59205;50.610;12.638;2022-10-28T04:46:04;96371.31;;;15.36;76.34
71392;BME280;59205;50.610;12.638;2022-10-28T04:48:31;96368.19;;;15.29;77.06
71392;BME280;59205;50.610;12.638;2022-10-28T04:50:56;96366.56;;;15.22;77.43
71392;BME280;59205;50.610;12.638;2022-10-28T04:53:22;96371.44;;;15.18;77.79
71392;BME280;59205;50.610;12.638;2022-10-28T04:55:47;96368.72;;;15.18;77.93
71392;BME280;59205;50.610;12.638;2022-10-28T04:58:13;96368.72;;;15.18;78.06
71392;BME280;59205;50.610;12.638;2022-10-28T05:00:38;96367.06;;;15.35;77.71
71392;BME280;59205;50.610;12.638;2022-10-28T05:03:03;96371.25;;;15.22;78.35
71392;BME280;59205;50.610;12.638;2022-10-28T05:05:29;96375.88;;;15.16;78.72
71392;BME280;59205;50.610;12.638;2022-10-28T05:07:54;96368.09;;;15.23;78.59
71392;BME280;59205;50.610;12.638;2022-10-28T05:10:20;96353.19;;;15.24;78.89
71392;BME280;59205;50.610;12.638;2022-10-28T05:12:45;96360.75;;;15.29;78.99
71392;BME280;59205;50.610;12.638;2022-10-28T05:15:12;96359.41;;;15.10;79.76
71392;BME280;59205;50.610;12.638;2022-10-28T05:17:39;96364.56;;;15.08;79.99
71392;BME280;59205;50.610;12.638;2022-10-28T05:20:05;96366.19;;;15.15;79.63
71392;BME280;59205;50.610;12.638;2022-10-28T05:22:31;96360.34;;;15.07;79.72
71392;BME280;59205;50.610;12.638;2022-10-28T05:24:56;96365.03;;;15.07;80.23
71392;BME280;59205;50.610;12.638;2022-10-28T05:27:22;96365.94;;;14.89;80.79
71392;BME280;59205;50.610;12.638;2022-10-28T05:29:47;96365.63;;;15.11;80.15
71392;BME280;59205;50.610;12.638;2022-10-28T05:32:13;96368.41;;;15.02;79.57
71392;BME280;59205;50.610;12.638;2022-10-28T05:34:38;96370.38;;;14.87;81.08
71392;BME280;59205;50.610;12.638;2022-10-28T05:37:04;96362.47;;;14.89;80.89
71392;BME280;59205;50.610;12.638;2022-10-28T05:39:29;96365.84;;;14.84;81.20
71392;BME280;59205;50.610;12.638;2022-10-28T05:41:54;96367.38;;;14.99;80.63
71392;BME280;59205;50.610;12.638;2022-10-28T05:44:20;96373.06;;;15.10;79.84
71392;BME280;59205;50.610;12.638;2022-10-28T05:46:45;96375.47;;;14.94;80.43
71392;BME280;59205;50.610;12.638;2022-10-28T05:49:11;96374.72;;;14.93;81.04
71392;BME280;59205;50.610;12.638;2022-10-28T05:51:36;96372.00;;;15.08;80.05
71392;BME280;59205;50.610;12.638;2022-10-28T05:54:02;96375.22;;;15.06;80.02
71392;BME280;59205;50.610;12.638;2022-10-28T05:56:27;96372.34;;;14.86;80.66
71392;BME280;59205;50.610;12.638;2022-10-28T05:58:53;96371.81;;;14.97;80.42
71392;BME280;59205;50.610;12.638;2022-10-28T06:01:18;96370.59;;;14.98;80.35
71392;BME280;59205;50.610;12.638;2022-10-28T06:03:44;96378.41;;;15.05;80.13
71392;BME280;59205;50.610;12.638;2022-10-28T06:06:09;96370.09;;;14.99;79.97
71392;BME280;59205;50.610;12.638;2022-10-28T06:08:34;96380.13;;;15.17;79.32
71392;BME280;59205;50.610;12.638;2022-10-28T06:11:00;96380.50;;;15.24;78.67
71392;BME280;59205;50.610;12.638;2022-10-28T06:13:26;96385.38;;;15.20;78.66
71392;BME280;59205;50.610;12.638;2022-10-28T06:15:52;96386.97;;;15.12;79.43
71392;BME280;59205;50.610;12.638;2022-10-28T06:18:18;96390.84;;;15.20;79.07
71392;BME280;59205;50.610;12.638;2022-10-28T06:20:43;96392.00;;;15.28;78.31
71392;BME280;59205;50.610;12.638;2022-10-28T06:23:08;96387.38;;;15.20;78.63
71392;BME280;59205;50.610;12.638;2022-10-28T06:25:34;96400.91;;;15.14;78.92
71392;BME280;59205;50.610;12.638;2022-10-28T06:27:59;96400.09;;;15.23;78.41
71392;BME280;59205;50.610;12.638;2022-10-28T06:30:27;96412.13;;;15.16;78.81
71392;BME280;59205;50.610;12.638;2022-10-28T06:32:56;96414.16;;;15.30;78.19
71392;BME280;59205;50.610;12.638;2022-10-28T06:35:22;96408.97;;;15.32;78.13
71392;BME280;59205;50.610;12.638;2022-10-28T06:37:47;96414.44;;;15.46;77.63
71392;BME280;59205;50.610;12.638;2022-10-28T06:40:13;96404.94;;;15.56;77.03
71392;BME280;59205;50.610;12.638;2022-10-28T06:42:38;96416.44;;;15.75;76.27
71392;BME280;59205;50.610;12.638;2022-10-28T06:45:04;96423.47;;;15.96;75.21
71392;BME280;59205;50.610;12.638;2022-10-28T06:47:30;96428.78;;;16.34;73.77
71392;BME280;59205;50.610;12.638;2022-10-28T06:49:55;96421.88;;;16.93;71.36
71392;BME280;59205;50.610;12.638;2022-10-28T06:52:21;96421.38;;;16.94;70.64
71392;BME280;59205;50.610;12.638;2022-10-28T06:54:46;96427.28;;;17.52;68.55
71392;BME280;59205;50.610;12.638;2022-10-28T06:57:11;96421.75;;;18.03;67.35
71392;BME280;59205;50.610;12.638;2022-10-28T06:59:37;96427.84;;;18.49;65.25
71392;BME280;59205;50.610;12.638;2022-10-28T07:02:02;96430.00;;;18.40;64.68
71392;BME280;59205;50.610;12.638;2022-10-28T07:04:28;96437.22;;;18.79;63.57
71392;BME280;59205;50.610;12.638;2022-10-28T07:06:56;96442.72;;;18.74;63.40
71392;BME280;59205;50.610;12.638;2022-10-28T07:09:22;96439.53;;;19.61;60.70
71392;BME280;59205;50.610;12.638;2022-10-28T07:11:48;96445.22;;;19.35;61.08
71392;BME280;59205;50.610;12.638;2022-10-28T07:14:13;96442.81;;;19.87;59.17
71392;BME280;59205;50.610;12.638;2022-10-28T07:16:39;96444.28;;;19.55;60.24
71392;BME280;59205;50.610;12.638;2022-10-28T07:19:06;96434.34;;;20.45;57.84
71392;BME280;59205;50.610;12.638;2022-10-28T07:21:31;96443.13;;;20.11;58.02
71392;BME280;59205;50.610;12.638;2022-10-28T07:23:57;96443.81;;;19.84;59.31
71392;BME280;59205;50.610;12.638;2022-10-28T07:26:22;96447.09;;;19.82;58.88
71392;BME280;59205;50.610;12.638;2022-10-28T07:28:49;96446.25;;;19.54;60.20
71392;BME280;59205;50.610;12.638;2022-10-28T07:31:14;96452.56;;;18.97;61.78
71392;BME280;59205;50.610;12.638;2022-10-28T07:33:40;96458.31;;;18.98;61.93
71392;BME280;59205;50.610;12.638;2022-10-28T07:36:06;96463.25;;;18.47;63.75
71392;BME280;59205;50.610;12.638;2022-10-28T07:38:32;96465.22;;;18.83;62.74
71392;BME280;59205;50.610;12.638;2022-10-28T07:40:57;96456.28;;;18.46;64.31
71392;BME280;59205;50.610;12.638;2022-10-28T07:43:23;96453.00;;;18.48;64.27
71392;BME280;59205;50.610;12.638;2022-10-28T07:45:55;96452.28;;;18.47;63.96
71392;BME280;59205;50.610;12.638;2022-10-28T07:48:20;96455.06;;;18.58;63.60
71392;BME280;59205;50.610;12.638;2022-10-28T07:50:46;96459.09;;;18.63;63.35
71392;BME280;59205;50.610;12.638;2022-10-28T07:53:11;96460.50;;;18.47;63.84
71392;BME280;59205;50.610;12.638;2022-10-28T07:55:39;96457.00;;;18.41;64.18
71392;BME280;59205;50.610;12.638;2022-10-28T07:58:04;96456.00;;;18.44;64.20
71392;BME280;59205;50.610;12.638;2022-10-28T08:00:29;96449.72;;;18.38;64.25
71392;BME280;59205;50.610;12.638;2022-10-28T08:02:55;96462.06;;;18.54;63.64
71392;BME280;59205;50.610;12.638;2022-10-28T08:05:20;96462.19;;;18.39;64.75
71392;BME280;59205;50.610;12.638;2022-10-28T08:07:46;96462.28;;;18.50;63.90
71392;BME280;59205;50.610;12.638;2022-10-28T08:10:12;96470.09;;;18.63;64.08
71392;BME280;59205;50.610;12.638;2022-10-28T08:12:37;96463.81;;;18.57;64.11
71392;BME280;59205;50.610;12.638;2022-10-28T08:15:03;96452.78;;;18.51;64.50
71392;BME280;59205;50.610;12.638;2022-10-28T08:17:29;96461.44;;;18.39;64.93
71392;BME280;59205;50.610;12.638;2022-10-28T08:19:57;96457.81;;;18.22;65.17
71392;BME280;59205;50.610;12.638;2022-10-28T08:22:23;96452.38;;;18.27;65.32
71392;BME280;59205;50.610;12.638;2022-10-28T08:24:48;96460.47;;;18.42;64.51
71392;BME280;59205;50.610;12.638;2022-10-28T08:27:14;96451.88;;;18.29;65.14
71392;BME280;59205;50.610;12.638;2022-10-28T08:29:39;96450.84;;;18.57;65.04
71392;BME280;59205;50.610;12.638;2022-10-28T08:32:07;96452.00;;;18.87;62.68
71392;BME280;59205;50.610;12.638;2022-10-28T08:34:33;96454.75;;;18.92;62.75
71392;BME280;59205;50.610;12.638;2022-10-28T08:36:59;96442.25;;;19.44;61.45
71392;BME280;59205;50.610;12.638;2022-10-28T08:39:24;96448.59;;;20.00;59.59
71392;BME280;59205;50.610;12.638;2022-10-28T08:42:29;96436.38;;;20.12;58.59
71392;BME280;59205;50.610;12.638;2022-10-28T08:51:21;96443.19;;;23.10;49.51
71392;BME280;59205;50.610;12.638;2022-10-28T08:53:54;96447.56;;;23.42;48.02
71392;BME280;59205;50.610;12.638;2022-10-28T08:56:42;96440.97;;;23.64;47.21
71392;BME280;59205;50.610;12.638;2022-10-28T08:59:18;96432.75;;;24.27;45.77
71392;BME280;59205;50.610;12.638;2022-10-28T09:01:47;96434.88;;;24.78;44.43
71392;BME280;59205;50.610;12.638;2022-10-28T09:04:45;96435.00;;;23.97;46.08
71392;BME280;59205;50.610;12.638;2022-10-28T09:07:19;96427.38;;;23.84;46.59
71392;BME280;59205;50.610;12.638;2022-10-28T09:09:48;96429.03;;;23.56;47.06
71392;BME280;59205;50.610;12.638;2022-10-28T09:17:54;96432.75;;;25.10;44.15
71392;BME280;59205;50.610;12.638;2022-10-28T09:23:02;96422.63;;;24.86;43.45
71392;BME280;59205;50.610;12.638;2022-10-28T09:28:40;96421.34;;;25.26;42.14
71392;BME280;59205;50.610;12.638;2022-10-28T09:36:35;96430.53;;;24.82;43.25
71392;BME280;59205;50.610;12.638;2022-10-28T09:39:04;96432.41;;;25.13;42.13
71392;BME280;59205;50.610;12.638;2022-10-28T09:41:36;96423.09;;;25.83;41.08
71392;BME280;59205;50.610;12.638;2022-10-28T09:44:05;96431.72;;;26.26;42.29
71392;BME280;59205;50.610;12.638;2022-10-28T09:46:31;96433.56;;;26.64;40.67
71392;BME280;59205;50.610;12.638;2022-10-28T09:49:15;96437.69;;;26.99;39.84
71392;BME280;59205;50.610;12.638;2022-10-28T09:54:27;96419.38;;;26.14;39.51
71392;BME280;59205;50.610;12.638;2022-10-28T09:56:56;96426.00;;;26.72;38.03
71392;BME280;59205;50.610;12.638;2022-10-28T09:59:21;96417.25;;;25.40;41.12
71392;BME280;59205;50.610;12.638;2022-10-28T10:01:47;96418.56;;;26.27;39.16
71392;BME280;59205;50.610;12.638;2022-10-28T10:04:25;96423.63;;;26.35;39.29
71392;BME280;59205;50.610;12.638;2022-10-28T10:06:57;96417.13;;;26.53;38.78
71392;BME280;59205;50.610;12.638;2022-10-28T10:09:28;96411.13;;;26.22;38.93
71392;BME280;59205;50.610;12.638;2022-10-28T10:11:59;96417.47;;;25.16;40.82
71392;BME280;59205;50.610;12.638;2022-10-28T10:14:55;96407.63;;;25.41;40.39
71392;BME280;59205;50.610;12.638;2022-10-28T10:17:38;96400.59;;;24.49;42.99
71392;BME280;59205;50.610;12.638;2022-10-28T10:20:13;96371.13;;;24.21;43.57
71392;BME280;59205;50.610;12.638;2022-10-28T10:22:42;96365.19;;;23.67;44.30
71392;BME280;59205;50.610;12.638;2022-10-28T10:30:30;96348.50;;;22.80;46.38
71392;BME280;59205;50.610;12.638;2022-10-28T10:32:57;96345.13;;;22.68;46.88
71392;BME280;59205;50.610;12.638;2022-10-28T10:35:28;96335.59;;;22.46;47.30
71392;BME280;59205;50.610;12.638;2022-10-28T10:37:57;96340.50;;;22.05;49.26
71392;BME280;59205;50.610;12.638;2022-10-28T10:40:26;96337.78;;;21.99;49.03
71392;BME280;59205;50.610;12.638;2022-10-28T10:42:56;96343.78;;;22.03;49.58
71392;BME280;59205;50.610;12.638;2022-10-28T10:45:38;96348.97;;;22.12;48.36
71392;BME280;59205;50.610;12.638;2022-10-28T10:48:14;96364.25;;;22.13;50.18
71392;BME280;59205;50.610;12.638;2022-10-28T10:50:41;96353.56;;;22.04;49.73
71392;BME280;59205;50.610;12.638;2022-10-28T10:53:21;96356.41;;;21.93;50.22
71392;BME280;59205;50.610;12.638;2022-10-28T10:55:50;96359.97;;;22.18;50.08
71392;BME280;59205;50.610;12.638;2022-10-28T10:58:19;96356.09;;;22.02;49.84
71392;BME280;59205;50.610;12.638;2022-10-28T11:00:48;96346.59;;;22.22;49.07
71392;BME280;59205;50.610;12.638;2022-10-28T11:03:33;96353.81;;;22.30;48.82
71392;BME280;59205;50.610;12.638;2022-10-28T11:06:01;96345.28;;;22.28;48.88
71392;BME280;59205;50.610;12.638;2022-10-28T11:08:39;96345.44;;;22.12;48.35
71392;BME280;59205;50.610;12.638;2022-10-28T11:11:10;96345.09;;;22.50;47.20
71392;BME280;59205;50.610;12.638;2022-10-28T11:13:37;96335.63;;;22.40;47.82
71392;BME280;59205;50.610;12.638;2022-10-28T11:16:06;96335.75;;;22.29;47.95
71392;BME280;59205;50.610;12.638;2022-10-28T11:18:41;96334.94;;;22.34;47.04
71392;BME280;59205;50.610;12.638;2022-10-28T11:26:53;96344.28;;;22.97;45.36
71392;BME280;59205;50.610;12.638;2022-10-28T11:29:22;96328.97;;;23.96;42.88
71392;BME280;59205;50.610;12.638;2022-10-28T11:37:29;96335.81;;;23.45;44.76
71392;BME280;59205;50.610;12.638;2022-10-28T11:42:33;96329.59;;;22.84;45.57
71392;BME280;59205;50.610;12.638;2022-10-28T11:45:18;96330.72;;;23.81;43.65
71392;BME280;59205;50.610;12.638;2022-10-28T11:53:50;96315.03;;;23.02;45.76
71392;BME280;59205;50.610;12.638;2022-10-28T11:56:41;96315.84;;;24.28;43.74
71392;BME280;59205;50.610;12.638;2022-10-28T12:00:06;96307.00;;;24.68;42.93
71392;BME280;59205;50.610;12.638;2022-10-28T12:02:37;96311.22;;;24.31;43.74
71392;BME280;59205;50.610;12.638;2022-10-28T12:05:43;96306.97;;;24.42;42.64
71392;BME280;59205;50.610;12.638;2022-10-28T12:16:29;96309.09;;;23.48;43.93
71392;BME280;59205;50.610;12.638;2022-10-28T12:19:20;96305.06;;;24.25;42.49
71392;BME280;59205;50.610;12.638;2022-10-28T12:21:57;96294.22;;;23.51;43.50
71392;BME280;59205;50.610;12.638;2022-10-28T12:24:25;96298.53;;;23.15;44.64
71392;BME280;59205;50.610;12.638;2022-10-28T12:26:55;96296.34;;;23.08;44.89
71392;BME280;59205;50.610;12.638;2022-10-28T12:29:25;96293.81;;;22.91;44.83
71392;BME280;59205;50.610;12.638;2022-10-28T12:32:00;96289.47;;;22.96;44.32
71392;BME280;59205;50.610;12.638;2022-10-28T12:34:33;96291.41;;;23.01;44.08
71392;BME280;59205;50.610;12.638;2022-10-28T12:37:12;96299.03;;;22.95;44.44
71392;BME280;59205;50.610;12.638;2022-10-28T12:39:49;96291.44;;;22.82;44.42
71392;BME280;59205;50.610;12.638;2022-10-28T12:42:23;96300.22;;;22.63;46.25
71392;BME280;59205;50.610;12.638;2022-10-28T12:44:51;96292.56;;;23.11;46.17
71392;BME280;59205;50.610;12.638;2022-10-28T12:52:26;96286.19;;;22.79;44.15
71392;BME280;59205;50.610;12.638;2022-10-28T12:57:32;96278.63;;;24.37;41.35
71392;BME280;59205;50.610;12.638;2022-10-28T13:00:22;96278.50;;;23.59;42.83
71392;BME280;59205;50.610;12.638;2022-10-28T13:02:54;96278.97;;;23.44;42.91
71392;BME280;59205;50.610;12.638;2022-10-28T13:05:27;96282.56;;;23.71;42.23
71392;BME280;59205;50.610;12.638;2022-10-28T13:18:55;96274.81;;;23.01;44.03
71392;BME280;59205;50.610;12.638;2022-10-28T13:27:14;96271.31;;;22.45;45.34
71392;BME280;59205;50.610;12.638;2022-10-28T13:29:42;96270.81;;;22.17;46.04
71392;BME280;59205;50.610;12.638;2022-10-28T13:34:56;96275.41;;;22.33;46.01
71392;BME280;59205;50.610;12.638;2022-10-28T13:37:25;96272.22;;;22.29;46.01
71392;BME280;59205;50.610;12.638;2022-10-28T13:39:55;96264.84;;;22.13;45.48
71392;BME280;59205;50.610;12.638;2022-10-28T13:47:26;96266.13;;;21.88;45.81
71392;BME280;59205;50.610;12.638;2022-10-28T13:50:12;96267.16;;;21.85;46.46
71392;BME280;59205;50.610;12.638;2022-10-28T13:52:43;96264.84;;;21.60;47.05
71392;BME280;59205;50.610;12.638;2022-10-28T13:57:41;96267.19;;;21.50;46.95
71392;BME280;59205;50.610;12.638;2022-10-28T14:00:53;96275.88;;;21.30;47.31
71392;BME280;59205;50.610;12.638;2022-10-28T14:05:26;96271.22;;;21.14;47.70
71392;BME280;59205;50.610;12.638;2022-10-28T14:10:59;96262.44;;;21.16;46.86
71392;BME280;59205;50.610;12.638;2022-10-28T14:13:28;96267.72;;;21.14;46.82
71392;BME280;59205;50.610;12.638;2022-10-28T14:19:04;96260.94;;;21.15;46.56
71392;BME280;59205;50.610;12.638;2022-10-28T14:21:44;96269.91;;;21.21;46.09
71392;BME280;59205;50.610;12.638;2022-10-28T14:35:01;96267.38;;;20.82;47.78
71392;BME280;59205;50.610;12.638;2022-10-28T14:37:54;96263.41;;;20.73;48.20
71392;BME280;59205;50.610;12.638;2022-10-28T14:42:50;96258.41;;;20.77;47.54
71392;BME280;59205;50.610;12.638;2022-10-28T14:45:22;96257.19;;;20.67;47.96
71392;BME280;59205;50.610;12.638;2022-10-28T14:50:39;96262.03;;;20.50;48.43
71392;BME280;59205;50.610;12.638;2022-10-28T14:53:19;96260.06;;;20.45;48.47
71392;BME280;59205;50.610;12.638;2022-10-28T14:55:53;96252.59;;;20.40;48.71
71392;BME280;59205;50.610;12.638;2022-10-28T14:58:22;96261.63;;;20.35;48.57
71392;BME280;59205;50.610;12.638;2022-10-28T15:01:03;96250.09;;;20.31;48.61
71392;BME280;59205;50.610;12.638;2022-10-28T15:03:31;96245.13;;;20.29;48.49
71392;BME280;59205;50.610;12.638;2022-10-28T15:06:01;96244.41;;;20.23;49.05
71392;BME280;59205;50.610;12.638;2022-10-28T15:08:28;96246.63;;;20.19;48.92
71392;BME280;59205;50.610;12.638;2022-10-28T15:10:53;96237.66;;;20.08;49.58
71392;BME280;59205;50.610;12.638;2022-10-28T15:13:19;96246.44;;;19.95;49.98
71392;BME280;59205;50.610;12.638;2022-10-28T15:15:53;96252.44;;;19.99;49.47
71392;BME280;59205;50.610;12.638;2022-10-28T15:18:23;96250.19;;;19.98;49.73
71392;BME280;59205;50.610;12.638;2022-10-28T15:20:48;96245.94;;;19.91;49.85
71392;BME280;59205;50.610;12.638;2022-10-28T15:23:19;96252.22;;;19.81;50.14
71392;BME280;59205;50.610;12.638;2022-10-28T15:25:45;96245.00;;;19.72;50.49
71392;BME280;59205;50.610;12.638;2022-10-28T15:28:11;96248.22;;;19.82;49.94